Time;durP1;ratioP1;P1;durP2;ratioP2;P2;SDS_P1;SDS_P2;PMS_P1;PMS_P2;Temp;Humidity;BMP_temperature;BMP_pressure;BME280_temperature;BME280_humidity;BME280_pressure;Samples;Min_cycle;Max_cycle;Signal;HPM_P1;HPM_P2
2021/11/01 00:01:59;;;;;;;17.67;9.45;;;;;;;9.49;100.00;100978.66;6390413;27;20248;-75
2021/11/01 00:05:08;;;;;;;17.75;9.40;;;;;;;9.39;100.00;100972.78;6390712;27;20215;-75
2021/11/01 00:08:13;;;;;;;22.63;10.75;;;;;;;9.39;100.00;100967.31;6391031;27;20218;-75
2021/11/01 00:11:19;;;;;;;19.55;10.80;;;;;;;9.41;100.00;100970.69;6390940;27;20181;-74
2021/11/01 00:14:24;;;;;;;19.38;10.18;;;;;;;9.38;100.00;100960.19;6390876;27;20185;-74
2021/11/01 00:17:29;;;;;;;21.48;10.93;;;;;;;9.44;100.00;100959.38;6390415;27;20189;-74
2021/11/01 00:20:33;;;;;;;20.58;10.32;;;;;;;9.49;100.00;100956.88;6390749;27;20190;-74
2021/11/01 00:23:39;;;;;;;20.52;10.18;;;;;;;9.52;100.00;100951.00;6390660;27;20206;-75
2021/11/01 00:26:44;;;;;;;19.33;10.18;;;;;;;9.57;100.00;100944.94;6390512;27;20220;-74
2021/11/01 00:29:49;;;;;;;23.55;11.35;;;;;;;9.55;100.00;100945.16;6404766;27;20389;-75
2021/11/01 00:32:53;;;;;;;21.45;11.00;;;;;;;9.67;100.00;100946.22;6390400;27;20213;-75
2021/11/01 00:35:57;;;;;;;22.83;11.45;;;;;;;9.61;100.00;100944.31;6389254;27;20254;-74
2021/11/01 00:39:03;;;;;;;18.45;10.38;;;;;;;9.76;100.00;100942.22;6390243;27;20186;-74
2021/11/01 00:42:10;;;;;;;19.77;11.07;;;;;;;9.70;100.00;100937.63;6388686;27;20377;-74
2021/11/01 00:45:15;;;;;;;20.88;11.00;;;;;;;9.80;100.00;100937.19;6389684;27;20212;-75
2021/11/01 00:48:19;;;;;;;19.98;10.30;;;;;;;9.72;100.00;100935.53;6388708;27;20405;-75
2021/11/01 00:51:23;;;;;;;17.27;9.93;;;;;;;9.82;100.00;100927.78;6388860;27;20261;-75
2021/11/01 00:54:28;;;;;;;17.63;10.35;;;;;;;9.83;100.00;100932.19;6389849;27;20216;-75
2021/11/01 00:57:33;;;;;;;21.70;9.80;;;;;;;9.89;100.00;100914.97;6388328;27;20509;-75
2021/11/01 01:00:38;;;;;;;14.85;8.73;;;;;;;9.84;100.00;100922.94;6405171;27;20234;-75
2021/11/01 01:03:43;;;;;;;13.20;8.93;;;;;;;9.83;100.00;100910.38;6388105;27;20181;-74
2021/11/01 01:06:48;;;;;;;15.15;9.38;;;;;;;9.89;100.00;100898.63;6388061;27;20360;-74
2021/11/01 01:09:52;;;;;;;12.52;8.35;;;;;;;9.98;100.00;100913.72;6387165;27;20484;-74
2021/11/01 01:12:58;;;;;;;10.27;7.22;;;;;;;10.06;100.00;100894.44;6388023;27;20365;-74
2021/11/01 01:16:08;;;;;;;10.73;6.85;;;;;;;9.98;100.00;100902.81;6387905;27;20469;-74
2021/11/01 01:19:19;;;;;;;8.13;6.50;;;;;;;10.01;100.00;100902.38;6389343;27;20182;-74
2021/11/01 01:22:28;;;;;;;8.30;6.45;;;;;;;10.09;100.00;100899.44;6389248;27;20182;-75
2021/11/01 01:25:46;;;;;;;11.98;6.97;;;;;;;9.94;100.00;100885.19;6389173;27;20216;-74
2021/11/01 01:28:52;;;;;;;9.30;6.65;;;;;;;9.98;100.00;100874.72;6379115;27;20230;-74
2021/11/01 01:31:57;;;;;;;9.57;6.00;;;;;;;9.95;100.00;100881.44;6382353;27;20240;-74
2021/11/01 01:35:02;;;;;;;9.90;5.95;;;;;;;9.92;100.00;100875.56;6387677;27;20492;-75
2021/11/01 01:38:07;;;;;;;12.18;6.07;;;;;;;9.94;100.00;100873.44;6388692;27;20243;-75
2021/11/01 01:41:13;;;;;;;7.72;6.35;;;;;;;9.89;100.00;100865.06;6388914;27;20189;-75
2021/11/01 01:44:19;;;;;;;11.82;7.05;;;;;;;9.85;100.00;100847.47;6387489;27;20217;-75
2021/11/01 01:47:23;;;;;;;16.25;7.22;;;;;;;9.91;100.00;100850.19;6388886;27;20181;-74
2021/11/01 01:50:28;;;;;;;11.00;6.80;;;;;;;10.07;100.00;100849.75;6388762;27;20185;-74
2021/11/01 01:53:32;;;;;;;10.60;6.50;;;;;;;10.03;100.00;100851.22;6388496;28;20182;-75
2021/11/01 01:56:37;;;;;;;12.30;7.18;;;;;;;10.08;100.00;100848.69;6388666;28;20185;-75
2021/11/01 01:59:43;;;;;;;12.90;7.45;;;;;;;10.05;100.00;100843.66;6387843;28;20207;-75
2021/11/01 02:02:48;;;;;;;14.18;7.22;;;;;;;9.94;100.00;100852.50;6388931;28;20252;-75
2021/11/01 02:06:09;;;;;;;14.75;7.93;;;;;;;9.98;100.00;100837.41;6387840;28;20216;-75
2021/11/01 02:09:18;;;;;;;17.17;8.05;;;;;;;9.93;100.00;100831.75;6388671;28;20181;-74
2021/11/01 02:12:28;;;;;;;14.23;8.00;;;;;;;9.92;100.00;100827.34;6388289;28;20226;-74
2021/11/01 02:15:38;;;;;;;10.25;7.35;;;;;;;10.08;100.00;100818.72;6388158;28;20185;-74
2021/11/01 02:18:47;;;;;;;11.95;7.60;;;;;;;10.18;100.00;100809.28;6386955;28;20188;-74
2021/11/01 02:21:59;;;;;;;14.05;7.47;;;;;;;10.22;100.00;100807.81;6392273;27;20249;-74
2021/11/01 02:25:08;;;;;;;13.45;7.80;;;;;;;10.27;100.00;100808.00;6393382;27;20217;-74
2021/11/01 02:28:20;;;;;;;12.13;7.22;;;;;;;10.23;100.00;100812.19;6393299;27;20242;-74
2021/11/01 02:31:26;;;;;;;15.15;7.78;;;;;;;10.23;100.00;100806.72;6392417;27;20225;-74
2021/11/01 02:34:30;;;;;;;11.15;7.45;;;;;;;10.18;100.00;100790.19;6391740;27;20520;-74
2021/11/01 02:37:37;;;;;;;15.13;8.40;;;;;;;10.29;100.00;100781.34;6391947;27;20212;-74
2021/11/01 02:40:42;;;;;;;14.73;8.43;;;;;;;10.28;100.00;100782.38;6393277;27;20185;-74
2021/11/01 02:43:50;;;;;;;14.45;8.77;;;;;;;10.29;100.00;100784.06;6392643;27;20182;-74
2021/11/01 02:46:55;;;;;;;16.85;8.00;;;;;;;10.23;100.00;100774.00;6391557;27;20400;-75
2021/11/01 02:50:00;;;;;;;13.02;8.32;;;;;;;10.27;100.00;100780.72;6392809;27;20283;-74
2021/11/01 02:53:05;;;;;;;16.45;8.27;;;;;;;10.21;100.00;100770.66;6392408;27;20250;-74
2021/11/01 02:56:11;;;;;;;14.57;8.07;;;;;;;10.28;100.00;100766.03;6392407;27;20185;-74
2021/11/01 02:59:17;;;;;;;15.50;8.20;;;;;;;10.39;100.00;100759.88;6391602;27;20181;-74
2021/11/01 03:02:21;;;;;;;16.65;8.68;;;;;;;10.25;100.00;100750.09;6392597;27;20244;-74
2021/11/01 03:05:28;;;;;;;14.90;8.57;;;;;;;10.38;100.00;100739.13;6391973;27;20205;-74
2021/11/01 03:08:33;;;;;;;15.63;8.15;;;;;;;10.33;100.00;100722.56;6390987;27;20250;-74
2021/11/01 03:11:38;;;;;;;15.82;8.10;;;;;;;10.34;100.00;100733.28;6390978;27;20262;-74
2021/11/01 03:14:49;;;;;;;13.77;8.02;;;;;;;10.38;100.00;100730.94;6392269;27;20213;-74
2021/11/01 03:17:59;;;;;;;14.75;8.20;;;;;;;10.41;100.00;100705.97;6391491;27;20469;-74
2021/11/01 03:21:06;;;;;;;16.23;8.77;;;;;;;10.40;100.00;100709.75;6392152;27;20189;-74
2021/11/01 03:24:13;;;;;;;14.07;7.80;;;;;;;10.37;100.00;100699.28;6391728;27;20220;-74
2021/11/01 03:27:19;;;;;;;13.85;8.38;;;;;;;10.48;100.00;100712.19;6391787;27;20236;-74
2021/11/01 03:30:26;;;;;;;15.93;9.18;;;;;;;10.42;100.00;100710.38;6391478;27;20233;-74
2021/11/01 03:33:38;;;;;;;16.63;9.27;;;;;;;10.48;100.00;100712.19;6390522;27;20244;-74
2021/11/01 03:36:42;;;;;;;15.52;8.95;;;;;;;10.57;100.00;100694.53;6390854;27;20221;-75
2021/11/01 03:39:48;;;;;;;14.77;9.15;;;;;;;10.59;100.00;100708.78;6391661;27;20186;-74
2021/11/01 03:42:53;;;;;;;15.38;9.27;;;;;;;10.60;100.00;100711.31;6391609;27;20182;-74
2021/11/01 03:46:03;;;;;;;15.55;9.50;;;;;;;10.67;100.00;100700.34;6391224;27;20213;-74
2021/11/01 03:49:11;;;;;;;15.10;9.60;;;;;;;10.57;100.00;100694.53;6391074;27;20186;-75
2021/11/01 03:52:20;;;;;;;14.63;9.27;;;;;;;10.53;100.00;100683.22;6390203;27;20181;-74
2021/11/01 03:55:28;;;;;;;16.30;9.80;;;;;;;10.57;100.00;100672.72;6391336;27;20182;-75
2021/11/01 03:58:33;;;;;;;17.15;10.43;;;;;;;10.62;100.00;100670.16;6391547;27;20225;-74
2021/11/01 04:01:40;;;;;;;14.70;9.43;;;;;;;10.72;100.00;100678.69;6390777;27;20188;-74
2021/11/01 04:04:46;;;;;;;13.63;9.60;;;;;;;10.69;100.00;100681.84;6389744;27;20435;-74
2021/11/01 04:07:50;;;;;;;15.27;10.10;;;;;;;10.75;100.00;100685.59;6389877;27;20241;-74
2021/11/01 04:10:55;;;;;;;14.18;9.73;;;;;;;10.71;100.00;100678.91;6389472;27;20241;-74
2021/11/01 04:14:01;;;;;;;16.02;9.90;;;;;;;10.67;100.00;100683.97;6390810;27;20182;-74
2021/11/01 04:17:12;;;;;;;20.33;10.73;;;;;;;10.74;100.00;100679.28;6390135;27;20368;-74
2021/11/01 04:23:37;;;;;;;19.15;11.20;;;;;;;10.73;100.00;100655.81;6389290;27;20272;-75
2021/11/01 04:26:43;;;;;;;18.05;11.30;;;;;;;10.84;100.00;100651.50;6389227;27;20227;-74
2021/11/01 04:29:47;;;;;;;21.77;11.75;;;;;;;10.81;100.00;100641.03;6390605;27;20197;-74
2021/11/01 04:32:55;;;;;;;21.90;12.73;;;;;;;10.75;100.00;100648.22;6390295;27;20248;-74
2021/11/01 04:35:59;;;;;;;22.60;12.48;;;;;;;10.79;100.00;100624.88;6390343;27;20244;-74
2021/11/01 04:39:09;;;;;;;27.20;13.73;;;;;;;10.84;100.00;100613.28;6390322;27;20219;-75
2021/11/01 04:55:45;;;;;;;29.42;16.50;;;;;;;10.81;100.00;100603.66;6389282;27;20181;-75
2021/11/01 04:58:50;;;;;;;29.00;16.63;;;;;;;10.87;100.00;100597.31;6390034;27;20217;-74
2021/11/01 05:01:55;;;;;;;36.40;19.15;;;;;;;10.86;100.00;100592.09;6388257;27;20370;-74
2021/11/01 05:05:02;;;;;;;36.75;18.38;;;;;;;10.88;100.00;100596.25;6388211;27;20465;-74
2021/11/01 05:08:07;;;;;;;34.40;18.48;;;;;;;10.84;100.00;100586.84;6388062;27;20512;-74
2021/11/01 05:11:21;;;;;;;35.42;18.33;;;;;;;10.81;100.00;100587.28;6389088;27;20188;-74
2021/11/01 05:14:33;;;;;;;39.00;19.63;;;;;;;10.89;100.00;100573.34;6389133;27;20189;-74
2021/11/01 05:17:49;;;;;;;36.30;20.02;;;;;;;10.92;100.00;100567.44;6389194;27;20185;-74
2021/11/01 05:20:59;;;;;;;42.72;19.35;;;;;;;10.89;100.00;100572.53;6388188;27;20364;-74
2021/11/01 05:24:06;;;;;;;33.80;19.77;;;;;;;10.91;100.00;100570.41;6387787;27;20487;-75
2021/11/01 05:27:37;;;;;;;41.38;20.73;;;;;;;11.02;100.00;100559.56;6388720;27;20209;-74
2021/11/01 05:30:43;;;;;;;35.15;20.90;;;;;;;11.04;100.00;100551.97;6389093;27;20303;-74
2021/11/01 05:33:55;;;;;;;45.25;20.73;;;;;;;11.00;100.00;100553.50;6389051;27;20182;-74
2021/11/01 05:37:01;;;;;;;40.00;20.13;;;;;;;11.01;100.00;100555.19;6388595;27;20248;-74
2021/11/01 05:40:06;;;;;;;36.35;20.48;;;;;;;11.03;100.00;100542.13;6388524;27;20188;-74
2021/11/01 05:43:10;;;;;;;43.80;21.45;;;;;;;11.13;100.00;100557.97;6388292;27;20201;-74
2021/11/01 05:46:15;;;;;;;36.88;22.13;;;;;;;10.95;100.00;100545.16;6388749;27;20213;-74
2021/11/01 05:49:21;;;;;;;44.95;21.30;;;;;;;10.98;100.00;100544.72;6388014;27;20281;-74
2021/11/01 05:52:29;;;;;;;45.20;22.05;;;;;;;10.94;100.00;100543.47;6388506;27;20186;-74
2021/11/01 05:55:39;;;;;;;44.55;22.10;;;;;;;10.81;100.00;100538.16;6387424;27;20414;-75
2021/11/01 05:58:53;;;;;;;43.15;21.55;;;;;;;10.89;100.00;100524.22;6387204;28;20230;-73
2021/11/01 06:05:37;;;;;;;36.95;20.60;;;;;;;10.89;100.00;100524.22;6388092;28;20181;-74
2021/11/01 06:09:02;;;;;;;40.72;23.13;;;;;;;10.86;100.00;100523.84;6388226;28;20214;-74
2021/11/01 06:15:30;;;;;;;43.20;22.25;;;;;;;10.96;100.00;100519.53;6387171;28;20191;-74
2021/11/01 06:18:38;;;;;;;40.80;22.90;;;;;;;10.96;100.00;100514.09;6388363;28;20292;-73
2021/11/01 06:21:44;;;;;;;39.25;22.45;;;;;;;10.98;100.00;100522.03;6388342;28;20249;-74
2021/11/01 06:24:51;;;;;;;45.63;24.45;;;;;;;10.94;100.00;100527.09;6387983;28;20204;-74
2021/11/01 06:27:55;;;;;;;42.53;24.55;;;;;;;10.93;100.00;100536.38;6386581;28;20248;-73
2021/11/01 06:31:03;;;;;;;41.90;22.80;;;;;;;10.97;100.00;100531.28;6387558;28;20261;-73
2021/11/01 06:34:25;;;;;;;41.10;22.58;;;;;;;11.03;100.00;100524.91;6387938;28;20209;-73
2021/11/01 06:40:56;;;;;;;41.20;22.85;;;;;;;11.07;100.00;100529.69;6346781;28;20197;-73
2021/11/01 06:44:20;;;;;;;40.97;22.15;;;;;;;11.04;100.00;100532.88;6386601;28;20186;-74
2021/11/01 06:50:57;;;;;;;41.05;22.73;;;;;;;11.12;100.00;100513.44;6386401;28;20235;-73
2021/11/01 06:57:48;;;;;;;41.28;22.80;;;;;;;11.11;100.00;100517.25;6308179;28;20270;-74
2021/11/01 07:14:39;;;;;;;38.92;21.42;;;;;;;11.21;100.00;100517.56;6391725;27;20204;-74
2021/11/01 07:17:46;;;;;;;39.13;20.83;;;;;;;11.15;100.00;100507.53;6391168;27;20190;-75
2021/11/01 07:21:02;;;;;;;37.75;21.25;;;;;;;11.16;100.00;100503.75;6390575;27;20248;-75
2021/11/01 08:22:03;;;;;;;25.27;15.77;;;;;;;11.67;92.84;100450.53;6389320;27;20436;-74
2021/11/01 08:46:00;;;;;;;24.27;14.40;;;;;;;11.82;89.90;100459.16;6389992;27;20291;-74
2021/11/01 08:49:17;;;;;;;34.50;15.18;;;;;;;11.81;90.26;100433.69;6389775;27;20241;-74
2021/11/01 09:10:01;;;;;;;23.30;14.27;;;;;;;11.80;90.30;100395.69;6309706;28;20587;-74
2021/11/01 09:13:24;;;;;;;24.55;14.27;;;;;;;11.83;89.61;100400.69;6318301;27;20245;-74
2021/11/01 09:20:02;;;;;;;24.20;13.60;;;;;;;11.90;88.78;100368.59;6388833;27;20312;-74
2021/11/01 09:23:26;;;;;;;26.20;13.95;;;;;;;11.80;88.83;100357.44;6388830;27;20188;-75
2021/11/01 09:26:35;;;;;;;24.38;13.45;;;;;;;11.82;88.63;100360.75;6389071;27;20329;-75
2021/11/01 09:30:00;;;;;;;25.58;13.48;;;;;;;11.80;87.66;100357.44;6371038;27;20303;-75
2021/11/01 09:36:41;;;;;;;19.83;12.30;;;;;;;11.87;86.98;100358.13;6349027;27;20197;-75
2021/11/01 09:40:54;;;;;;;20.83;13.57;;;;;;;11.91;86.59;100348.41;6388664;27;20261;-75
2021/11/01 09:43:20;;;;;;;24.27;12.88;;;;;;;11.84;87.33;100331.28;6387194;27;20516;-75
2021/11/01 09:46:27;;;;;;;24.88;13.32;;;;;;;11.83;86.69;100335.94;6387356;27;20189;-75
2021/11/01 09:49:34;;;;;;;21.52;12.65;;;;;;;11.94;86.45;100331.50;6388540;27;20274;-75
2021/11/01 09:52:38;;;;;;;22.52;12.25;;;;;;;11.92;85.59;100333.66;6387320;27;20410;-74
2021/11/01 09:55:53;;;;;;;23.60;12.73;;;;;;;12.03;85.49;100341.03;6387205;27;20496;-75
2021/11/01 09:59:14;;;;;;;19.25;12.63;;;;;;;12.03;85.84;100338.28;6388495;28;20242;-74
2021/11/01 10:02:22;;;;;;;21.30;12.10;;;;;;;11.99;85.56;100345.31;6388464;28;20212;-74
2021/11/01 10:05:27;;;;;;;25.73;11.98;;;;;;;11.96;86.45;100351.25;6386900;28;20181;-74
2021/11/01 10:08:31;;;;;;;21.55;11.70;;;;;;;12.00;86.32;100357.06;6388108;28;20213;-75
2021/11/01 10:11:39;;;;;;;25.95;12.77;;;;;;;12.00;86.01;100346.97;6388304;28;20182;-74
2021/11/01 10:14:49;;;;;;;24.85;11.73;;;;;;;12.01;84.85;100345.06;6388021;28;20185;-74
2021/11/01 10:17:59;;;;;;;20.02;12.35;;;;;;;12.06;83.96;100329.63;6369968;28;20321;-74
2021/11/01 10:21:03;;;;;;;15.60;11.75;;;;;;;12.07;84.63;100334.00;6387162;28;20192;-74
2021/11/01 10:24:08;;;;;;;19.33;11.85;;;;;;;12.16;84.32;100327.13;6387987;28;20245;-74
2021/11/01 10:27:15;;;;;;;18.63;10.90;;;;;;;12.15;83.83;100328.16;6389331;28;20189;-74
2021/11/01 10:30:23;;;;;;;16.92;10.95;;;;;;;12.14;83.20;100329.25;6387148;28;20241;-75
2021/11/01 10:33:34;;;;;;;19.40;11.23;;;;;;;12.14;83.55;100336.63;6390296;28;20189;-74
2021/11/01 10:36:40;;;;;;;17.20;10.55;;;;;;;12.13;83.58;100324.84;6389265;28;20213;-74
2021/11/01 10:39:54;;;;;;;24.80;12.60;;;;;;;12.18;83.76;100324.97;6386671;28;20185;-74
2021/11/01 10:43:09;;;;;;;20.63;11.90;;;;;;;12.26;83.48;100323.75;6390889;27;20463;-74
2021/11/01 10:57:15;;;;;;;21.25;11.93;;;;;;;12.27;83.77;100315.34;6392456;27;20250;-74
2021/11/01 11:13:57;;;;;;;21.85;12.60;;;;;;;12.27;83.10;100298.94;6391801;27;20189;-75
2021/11/01 11:17:13;;;;;;;22.73;12.45;;;;;;;12.37;82.92;100293.66;6391072;27;20181;-74
2021/11/01 11:20:28;;;;;;;19.42;12.75;;;;;;;12.36;83.69;100302.94;6390664;27;20357;-74
2021/11/01 11:27:33;;;;;;;20.55;12.65;;;;;;;12.37;82.96;100309.25;6391520;27;20213;-74
2021/11/01 11:30:59;;;;;;;26.10;12.60;;;;;;;12.33;83.24;100292.47;6391473;27;20277;-74
2021/11/01 11:47:00;;;;;;;25.85;12.82;;;;;;;12.37;83.11;100282.72;6390695;27;20279;-75
2021/11/01 11:47:39;;;;;;;23.95;13.23;;;;;;;12.34;83.45;100277.72;6389843;27;20495;-74
2021/11/01 11:50:45;;;;;;;25.15;12.20;;;;;;;12.34;83.19;100277.72;6390135;27;20213;-74
2021/11/01 11:53:56;;;;;;;18.73;12.82;;;;;;;12.24;84.18;100283.00;6388873;27;20523;-74
2021/11/01 11:57:04;;;;;;;20.65;12.50;;;;;;;12.25;84.00;100284.63;6389774;27;20528;-74
2021/11/01 12:00:12;;;;;;;22.48;13.00;;;;;;;12.22;83.49;100274.16;6390011;27;20249;-74
2021/11/01 12:03:19;;;;;;;24.90;13.02;;;;;;;12.26;83.35;100275.38;6389868;27;20469;-75
2021/11/01 12:06:43;;;;;;;24.15;13.23;;;;;;;12.36;83.23;100275.59;6390780;27;20185;-74
2021/11/01 12:09:54;;;;;;;24.35;13.27;;;;;;;12.26;83.86;100275.38;6390870;27;20213;-75
2021/11/01 12:13:08;;;;;;;20.25;12.43;;;;;;;12.31;83.85;100267.28;6389399;27;20235;-74
2021/11/01 12:19:41;;;;;;;25.15;12.10;;;;;;;12.28;83.20;100273.22;6389119;27;20577;-75
2021/11/01 12:22:50;;;;;;;24.50;12.32;;;;;;;12.20;83.94;100276.31;6390202;27;20181;-75
2021/11/01 12:25:56;;;;;;;24.88;13.07;;;;;;;12.25;82.93;100268.22;6389023;27;20372;-75
2021/11/01 12:29:03;;;;;;;21.48;11.73;;;;;;;12.32;83.25;100274.41;6389126;27;20284;-75
2021/11/01 12:32:13;;;;;;;25.10;12.82;;;;;;;12.13;84.64;100259.22;6389142;27;20300;-75
2021/11/01 12:35:25;;;;;;;23.13;12.48;;;;;;;12.14;84.34;100255.44;6389118;27;20181;-76
2021/11/01 12:38:38;;;;;;;20.00;13.73;;;;;;;12.18;84.32;100256.59;6388937;27;20476;-75
2021/11/01 12:41:51;;;;;;;23.00;12.40;;;;;;;12.07;84.50;100254.72;6389469;27;20207;-74
2021/11/01 12:48:42;;;;;;;24.83;13.45;;;;;;;12.00;85.59;100240.34;6389717;27;20188;-75
2021/11/01 12:58:44;;;;;;;20.27;11.57;;;;;;;12.05;84.00;100235.00;6388169;27;20499;-74
2021/11/01 13:01:51;;;;;;;19.77;11.95;;;;;;;12.02;84.49;100219.06;6389209;27;20185;-75
2021/11/01 13:04:58;;;;;;;22.40;13.05;;;;;;;12.06;84.65;100220.25;6388443;27;20181;-75
2021/11/01 13:08:06;;;;;;;22.35;11.93;;;;;;;11.95;84.98;100212.91;6389001;27;20213;-75
2021/11/01 13:11:31;;;;;;;23.58;12.75;;;;;;;11.99;84.59;100218.72;6389272;27;20236;-75
2021/11/01 13:18:11;;;;;;;20.13;11.75;;;;;;;11.86;85.66;100208.91;6388766;27;20182;-75
2021/11/01 13:21:18;;;;;;;22.67;12.32;;;;;;;11.90;85.22;100207.31;6387812;27;20223;-75
2021/11/01 13:24:35;;;;;;;22.88;12.88;;;;;;;11.92;85.10;100218.84;6387646;27;20185;-74
2021/11/01 13:27:49;;;;;;;23.90;12.40;;;;;;;11.95;85.38;100215.63;6387653;27;20302;-75
2021/11/01 13:37:46;;;;;;;20.92;11.65;;;;;;;11.73;87.06;100214.63;6388379;27;20182;-74
2021/11/01 13:40:51;;;;;;;23.67;12.15;;;;;;;11.92;85.68;100229.78;6388346;27;20264;-73
2021/11/01 13:44:06;;;;;;;21.80;12.60;;;;;;;11.82;86.43;100224.09;6387869;27;20189;-74
2021/11/01 13:47:14;;;;;;;21.00;12.15;;;;;;;11.70;87.05;100220.56;6387211;27;20378;-75
2021/11/01 13:50:21;;;;;;;21.23;11.90;;;;;;;11.67;87.77;100226.47;6388418;27;20249;-75
2021/11/01 13:53:29;;;;;;;17.05;11.90;;;;;;;11.75;87.70;100231.59;6387645;27;20289;-75
2021/11/01 13:56:39;;;;;;;23.70;11.85;;;;;;;11.69;87.74;100213.41;6387670;28;20225;-76
2021/11/01 13:59:50;;;;;;;25.65;11.77;;;;;;;11.68;88.38;100233.59;6388393;28;20194;-75
2021/11/01 14:13:22;;;;;;;19.52;12.07;;;;;;;11.57;89.17;100213.41;6388026;28;20209;-74
2021/11/01 14:16:33;;;;;;;25.13;12.48;;;;;;;11.58;89.29;100208.78;6389787;27;20234;-74
2021/11/01 15:07:42;;;;;;;23.60;12.98;;;;;;;11.43;91.95;100254.88;6392375;27;20182;-75
2021/11/01 15:11:29;;;;;;;22.63;12.77;;;;;;;11.28;92.43;100256.13;6392318;27;20186;-75
2021/11/01 15:15:03;;;;;;;23.10;12.88;;;;;;;11.31;92.73;100266.59;6391657;27;20182;-75
2021/11/01 15:18:31;;;;;;;27.13;13.02;;;;;;;11.33;92.35;100261.72;6392167;27;20274;-75
2021/11/01 15:21:40;;;;;;;24.33;13.35;;;;;;;11.20;93.47;100275.59;6390511;27;20186;-76
2021/11/01 15:28:28;;;;;;;27.35;13.77;;;;;;;11.29;93.06;100268.75;6389710;27;20189;-74
2021/11/01 16:19:29;;;;;;;28.05;14.20;;;;;;;11.14;93.95;100238.31;6390261;27;20229;-74
2021/11/01 16:22:37;;;;;;;31.40;15.35;;;;;;;11.17;93.25;100248.75;6389054;27;20398;-75
2021/11/01 16:25:45;;;;;;;23.55;14.35;;;;;;;11.09;94.17;100251.00;6389067;27;20213;-74
2021/11/01 16:28:58;;;;;;;24.90;13.90;;;;;;;11.02;94.76;100245.63;6362960;27;20199;-75
2021/11/01 16:32:16;;;;;;;30.77;15.93;;;;;;;10.99;94.49;100240.66;6386493;27;20233;-75
2021/11/01 16:35:32;;;;;;;28.73;14.57;;;;;;;10.97;94.73;100236.47;6388929;27;20185;-75
2021/11/01 16:38:50;;;;;;;31.38;15.85;;;;;;;10.95;95.02;100244.09;6388775;27;20220;-74
2021/11/01 16:42:00;;;;;;;28.55;15.70;;;;;;;10.98;94.94;100247.19;6389985;27;20189;-75
2021/11/01 16:45:15;;;;;;;32.13;15.30;;;;;;;11.03;94.91;100246.47;6388608;27;20212;-75
2021/11/01 16:48:25;;;;;;;28.95;15.70;;;;;;;11.21;93.14;100239.03;6370668;27;20252;-74
2021/11/01 16:51:36;;;;;;;29.52;16.10;;;;;;;11.04;94.61;100232.56;6388261;27;20201;-75
2021/11/01 16:54:48;;;;;;;30.08;15.50;;;;;;;11.04;94.14;100232.56;6389250;27;20214;-75
2021/11/01 16:58:14;;;;;;;34.97;16.10;;;;;;;10.98;95.35;100238.16;6389231;27;20182;-74
2021/11/01 17:01:27;;;;;;;27.38;15.75;;;;;;;11.05;94.61;100239.72;6388154;27;20188;-75
2021/11/01 17:04:38;;;;;;;35.03;15.27;;;;;;;11.10;94.27;100241.72;6370914;27;20208;-74
2021/11/01 17:08:06;;;;;;;33.47;15.20;;;;;;;11.07;94.37;100234.84;6388182;27;20181;-75
2021/11/01 17:21:41;;;;;;;30.50;17.20;;;;;;;11.17;92.34;100259.66;6387719;27;20188;-74
2021/11/01 17:24:51;;;;;;;34.95;16.58;;;;;;;11.00;93.15;100257.84;6370899;27;20229;-75
2021/11/01 17:28:21;;;;;;;34.15;17.30;;;;;;;11.14;92.40;100260.16;6387526;27;20181;-75
2021/11/01 17:35:27;;;;;;;34.30;17.27;;;;;;;11.12;91.44;100267.72;6331864;28;20230;-75
2021/11/01 18:38:29;;;;;;;31.92;17.77;;;;;;;11.00;91.71;100316.00;6387836;28;20182;-75
2021/11/01 18:41:39;;;;;;;34.70;17.92;;;;;;;10.98;92.23;100300.94;6369690;28;20197;-74
2021/11/01 18:45:07;;;;;;;35.95;19.35;;;;;;;11.16;90.96;100307.16;6387472;28;20252;-74
2021/11/01 18:51:49;;;;;;;47.97;24.75;;;;;;;11.17;91.79;100308.81;6385487;28;20197;-74
2021/11/01 18:55:00;;;;;;;37.08;19.90;;;;;;;11.19;90.78;100301.25;6386566;28;20531;-73
2021/11/01 18:58:08;;;;;;;38.00;20.08;;;;;;;11.20;91.04;100305.63;6385936;28;20225;-75
2021/11/01 19:01:14;;;;;;;42.40;20.40;;;;;;;11.19;91.59;100312.16;6386468;28;20464;-74
2021/11/01 19:04:28;;;;;;;36.75;19.80;;;;;;;11.32;90.14;100311.94;6390625;27;20281;-74
2021/11/01 19:07:43;;;;;;;37.78;19.40;;;;;;;11.28;91.02;100310.75;6392144;27;20223;-75
2021/11/01 20:13:45;;;;;;;36.88;19.88;;;;;;;11.48;91.53;100375.19;6388927;27;20182;-74
2021/11/01 21:25:56;;;;;;;38.85;19.17;;;;;;;11.59;93.20;100431.72;6332799;28;20183;-75
2021/11/01 21:29:02;;;;;;;34.80;19.08;;;;;;;11.49;94.39;100450.56;6331690;28;20187;-74
2021/11/01 21:32:08;;;;;;;39.58;19.73;;;;;;;11.48;94.40;100451.66;6314308;28;20379;-75
2021/11/01 21:38:36;;;;;;;40.55;19.88;;;;;;;11.48;93.98;100457.13;6315569;28;20211;-75
2021/11/01 21:41:41;;;;;;;42.03;19.25;;;;;;;11.52;94.21;100452.84;6315959;28;20251;-74
2021/11/01 21:44:48;;;;;;;44.97;18.58;;;;;;;11.54;93.67;100451.56;6316227;28;20190;-76
2021/11/01 21:47:52;;;;;;;41.88;18.27;;;;;;;11.45;94.92;100441.19;6315794;28;20184;-75
2021/11/01 21:50:59;;;;;;;36.63;19.00;;;;;;;11.40;94.80;100446.53;6314570;28;20235;-74
2021/11/01 21:54:14;;;;;;;36.15;19.48;;;;;;;11.56;94.19;100443.09;6315672;28;20184;-74
2021/11/01 21:57:22;;;;;;;40.67;19.77;;;;;;;11.56;94.06;100451.31;6315168;28;20206;-74
2021/11/01 22:00:44;;;;;;;35.85;19.48;;;;;;;11.61;93.77;100446.81;6314202;28;20481;-74
2021/11/01 22:17:41;;;;;;;39.67;19.02;;;;;;;11.44;95.40;100448.56;6314867;28;20190;-74
2021/11/01 22:20:48;;;;;;;33.35;19.70;;;;;;;11.43;95.87;100455.06;6313598;28;20463;-74
2021/11/01 22:24:02;;;;;;;39.65;19.88;;;;;;;11.38;96.13;100451.34;6314977;28;20251;-75
2021/11/01 22:34:12;;;;;;;41.03;19.23;;;;;;;11.46;95.83;100442.84;6313701;28;20264;-74
2021/11/01 22:40:41;;;;;;;32.53;17.20;;;;;;;11.49;95.86;100436.91;6314590;28;20270;-75
2021/11/01 22:47:47;;;;;;;35.00;19.05;;;;;;;11.64;94.92;100459.19;6297234;28;20199;-74
2021/11/01 22:57:36;;;;;;;38.30;19.40;;;;;;;11.65;94.22;100469.91;6313847;28;20184;-74
2021/11/01 23:00:45;;;;;;;37.53;18.77;;;;;;;11.65;94.53;100467.16;6313105;28;20218;-74
2021/11/01 23:04:00;;;;;;;36.75;18.83;;;;;;;11.71;94.23;100465.44;6313796;28;20251;-74
2021/11/01 23:34:06;;;;;;;38.60;19.95;;;;;;;11.20;98.23;100493.19;6310801;28;20231;-74
2021/11/01 23:37:10;;;;;;;36.75;19.45;;;;;;;11.19;98.96;100492.38;6312230;28;20350;-74
2021/11/01 23:40:17;;;;;;;42.00;20.25;;;;;;;11.21;98.72;100489.41;6312774;28;20207;-74
2021/11/01 23:43:22;;;;;;;37.13;19.70;;;;;;;11.16;98.77;100492.84;6311765;28;20229;-74
2021/11/01 23:46:26;;;;;;;43.13;19.20;;;;;;;11.20;98.26;100494.03;6313048;28;20184;-74
2021/11/01 23:49:30;;;;;;;39.20;19.88;;;;;;;11.29;97.44;100491.84;6312660;28;20256;-74
2021/11/01 23:52:39;;;;;;;35.08;19.38;;;;;;;11.35;96.98;100490.09;6311518;28;20187;-75
2021/11/01 23:55:45;;;;;;;38.72;19.23;;;;;;;11.52;96.13;100499.28;6313086;28;20215;-74
2021/11/01 23:58:51;;;;;;;35.72;19.40;;;;;;;11.46;95.99;100502.94;6311548;28;20425;-74
